Time;durP1;ratioP1;P1;durP2;ratioP2;P2;SDS_P1;SDS_P2;PMS_P1;PMS_P2;Temp;Humidity;BMP_temperature;BMP_pressure;BME280_temperature;BME280_humidity;BME280_pressure;Samples;Min_cycle;Max_cycle;Signal;HPM_P1;HPM_P2
2023/10/16 00:00:42;;;;;;;0.52;0.52;;;;;;;22.81;45.46;100243.19;21175240;28;20040;-61
2023/10/16 00:11:16;;;;;;;0.45;0.45;;;;;;;22.67;45.68;100247.97;21174651;28;20039;-63
2023/10/16 00:21:18;;;;;;;0.77;0.50;;;;;;;22.79;45.53;100245.50;21165764;27;20376;-62
2023/10/16 00:31:25;;;;;;;0.55;0.55;;;;;;;22.80;45.49;100258.28;21174044;28;20024;-63
2023/10/16 00:41:28;;;;;;;0.50;0.50;;;;;;;22.76;45.59;100262.84;21149183;28;20035;-63
2023/10/16 00:51:29;;;;;;;0.50;0.50;;;;;;;22.78;45.67;100277.31;21151515;28;20424;-63
2023/10/16 01:01:31;;;;;;;0.43;0.40;;;;;;;22.80;45.55;100296.53;21122315;28;20047;-62
2023/10/16 01:11:37;;;;;;;1.02;0.50;;;;;;;22.78;45.62;100302.41;21137282;28;20025;-64
2023/10/16 01:21:39;;;;;;;0.30;0.30;;;;;;;22.78;45.53;100310.78;21123562;28;20044;-62
2023/10/16 01:31:43;;;;;;;4.88;0.93;;;;;;;22.79;46.50;100309.63;21130968;28;20036;-62
2023/10/16 01:41:52;;;;;;;3.67;0.88;;;;;;;22.81;48.19;100310.16;21162947;28;20043;-63
2023/10/16 01:51:54;;;;;;;;;;;;;;;22.84;48.83;100309.53;21098032;28;20094;-62
2023/10/16 02:01:55;;;;;;;4.32;1.02;;;;;;;22.91;50.77;100303.59;21143852;27;19945;-62
2023/10/16 02:12:01;;;;;;;3.17;0.73;;;;;;;22.87;51.03;100296.13;21117619;28;20062;-62
2023/10/16 02:22:06;;;;;;;1.85;0.98;;;;;;;22.90;52.40;100289.94;21089888;28;20032;-62
2023/10/16 02:32:10;;;;;;;5.05;0.70;;;;;;;22.91;52.77;100274.84;21074635;28;20040;-62
2023/10/16 02:42:14;;;;;;;1.73;0.95;;;;;;;22.91;52.42;100269.25;21079047;28;20032;-62
2023/10/16 02:52:19;;;;;;;2.95;0.98;;;;;;;22.88;51.84;100265.13;21077892;28;20032;-62
2023/10/16 03:02:25;;;;;;;3.67;1.25;;;;;;;22.89;51.30;100274.31;21094847;28;20040;-62
2023/10/16 03:12:27;;;;;;;4.63;1.00;;;;;;;22.83;50.46;100271.63;21118317;28;20048;-62
2023/10/16 03:22:28;;;;;;;4.32;0.93;;;;;;;22.88;49.90;100270.69;21125231;28;20544;-62
2023/10/16 03:32:33;;;;;;;1.23;0.60;;;;;;;22.88;49.87;100289.41;21160201;28;20040;-62
2023/10/16 03:42:35;;;;;;;1.77;0.80;;;;;;;22.87;49.53;100296.13;21085934;28;20117;-63
2023/10/16 03:52:36;;;;;;;2.30;0.82;;;;;;;22.83;49.24;100290.34;21091048;28;20043;-63
2023/10/16 04:02:40;;;;;;;3.08;0.70;;;;;;;22.83;49.29;100285.56;21118637;28;20433;-63
2023/10/16 04:12:51;;;;;;;2.50;0.63;;;;;;;22.83;48.98;100291.16;21115781;28;20097;-62
2023/10/16 04:22:58;;;;;;;2.40;0.75;;;;;;;22.82;48.78;100292.31;21172964;28;20383;-63
2023/10/16 04:34:19;;;;;;;1.47;0.60;;;;;;;22.79;48.64;100295.69;21172294;28;20077;-62
2023/10/16 04:54:13;;;;;;;2.05;0.70;;;;;;;22.78;48.38;100309.97;21173099;28;20383;-62
2023/10/16 06:16:46;;;;;;;0.63;0.50;;;;;;;22.76;47.71;100321.41;21108035;28;20040;-63
2023/10/16 06:26:47;;;;;;;1.02;0.45;;;;;;;22.76;47.62;100335.34;21163954;28;20039;-62
2023/10/16 06:36:51;;;;;;;0.52;0.50;;;;;;;22.68;47.54;100322.16;21163466;28;20036;-63
2023/10/16 06:46:59;;;;;;;1.02;0.55;;;;;;;22.75;47.33;100328.13;21151559;28;20479;-62
2023/10/16 06:57:10;;;;;;;0.50;0.50;;;;;;;22.71;47.48;100313.13;21122369;28;20047;-62
2023/10/16 07:07:16;;;;;;;0.40;0.40;;;;;;;22.72;47.21;100298.06;21132547;28;20074;-63
2023/10/16 07:17:26;;;;;;;0.35;0.35;;;;;;;22.71;47.38;100296.41;21108224;28;20043;-63
2023/10/16 07:27:31;;;;;;;0.73;0.40;;;;;;;22.71;47.08;100304.78;21131770;28;20124;-63
2023/10/16 07:37:40;;;;;;;0.38;0.38;;;;;;;22.61;47.09;100299.41;21159769;28;20457;-63
2023/10/16 07:47:46;;;;;;;0.50;0.50;;;;;;;22.70;46.97;100314.28;21159512;28;20124;-63
2023/10/16 07:57:48;;;;;;;0.32;0.30;;;;;;;22.54;47.09;100304.53;21174626;28;20406;-62
2023/10/16 08:07:52;;;;;;;0.40;0.40;;;;;;;22.68;46.88;100327.72;21174487;28;20044;-62
2023/10/16 08:17:54;;;;;;;0.50;0.43;;;;;;;22.67;46.94;100309.31;21173579;28;20085;-62
2023/10/16 08:27:58;;;;;;;0.38;0.38;;;;;;;22.65;47.02;100300.44;21173322;28;20456;-61
2023/10/16 08:37:59;;;;;;;0.40;0.40;;;;;;;22.64;46.86;100293.22;21159725;28;20044;-61
2023/10/16 08:48:08;;;;;;;0.65;0.65;;;;;;;22.64;46.76;100276.47;21123477;28;20040;-62
2023/10/16 08:58:09;;;;;;;0.25;0.25;;;;;;;22.59;46.74;100273.78;21115596;28;20032;-63
2023/10/16 09:08:14;;;;;;;0.38;0.30;;;;;;;22.62;46.80;100278.75;21123102;28;20098;-61
2023/10/16 09:18:16;;;;;;;0.30;0.30;;;;;;;22.62;46.56;100272.34;21139474;28;20561;-62
2023/10/16 09:28:20;;;;;;;0.43;0.35;;;;;;;22.60;46.78;100275.44;21082881;28;20407;-62
2023/10/16 09:38:32;;;;;;;0.35;0.35;;;;;;;22.55;46.55;100278.34;21148666;28;20036;-63
2023/10/16 09:48:34;;;;;;;0.38;0.30;;;;;;;22.59;46.60;100284.94;21166967;28;20043;-63
2023/10/16 09:58:44;;;;;;;0.25;0.25;;;;;;;22.51;46.39;100274.50;21166594;28;20027;-62
2023/10/16 10:19:31;;;;;;;0.63;0.40;;;;;;;22.52;46.26;100278.94;21080281;28;20082;-62
2023/10/16 10:29:35;;;;;;;0.60;0.52;;;;;;;22.49;46.15;100269.22;21146145;28;20039;-62
2023/10/16 10:39:40;;;;;;;0.30;0.30;;;;;;;22.51;46.17;100289.25;21150327;28;20486;-61
2023/10/16 10:49:43;;;;;;;0.38;0.30;;;;;;;22.52;46.33;100278.94;21159147;28;20405;-62
2023/10/16 10:59:48;;;;;;;0.85;0.40;;;;;;;22.38;46.00;100275.31;21086928;28;20052;-62
2023/10/16 11:09:54;;;;;;;0.75;0.50;;;;;;;22.51;46.16;100291.22;21083968;28;20031;-62
2023/10/16 11:20:07;;;;;;;0.73;0.50;;;;;;;22.42;46.17;100281.91;21112829;28;20050;-62
2023/10/16 11:30:18;;;;;;;0.30;0.30;;;;;;;22.48;46.01;100301.03;21096630;28;20054;-62
2023/10/16 11:40:39;;;;;;;0.22;0.22;;;;;;;22.47;46.29;100298.56;21114514;28;20044;-63
2023/10/16 11:50:41;;;;;;;0.73;0.30;;;;;;;22.30;46.03;100283.22;21153802;28;20031;-62
2023/10/16 12:00:57;;;;;;;0.40;0.40;;;;;;;22.42;46.00;100302.25;21093305;28;20487;-61
2023/10/16 12:11:01;;;;;;;0.90;0.30;;;;;;;22.44;46.01;100311.13;21142011;28;20039;-61
2023/10/16 12:21:05;;;;;;;0.47;0.30;;;;;;;22.32;45.86;100297.69;21140257;28;20044;-63
2023/10/16 12:31:08;;;;;;;1.75;0.40;;;;;;;22.44;46.20;100319.50;21149373;28;20099;-62
2023/10/16 12:41:13;;;;;;;2.50;0.80;;;;;;;22.45;46.25;100335.13;21148826;28;20039;-61
2023/10/16 12:51:17;;;;;;;0.93;0.52;;;;;;;22.45;46.33;100323.97;21148576;28;20040;-62
2023/10/16 13:01:21;;;;;;;2.42;0.50;;;;;;;22.47;46.38;100334.78;21114394;28;20097;-62
2023/10/16 13:11:24;;;;;;;1.90;0.90;;;;;;;22.46;46.21;100341.50;21159864;28;20106;-61
2023/10/16 13:21:41;;;;;;;2.83;0.88;;;;;;;22.42;46.05;100348.81;21144613;28;20088;-63
2023/10/16 13:31:46;;;;;;;1.92;0.77;;;;;;;22.47;46.46;100354.31;21165820;28;20109;-61
2023/10/16 13:41:50;;;;;;;4.15;1.30;;;;;;;22.48;46.31;100355.97;21150101;28;20461;-60
2023/10/16 13:51:55;;;;;;;2.40;1.02;;;;;;;22.49;46.41;100357.59;21157909;28;20343;-63
2023/10/16 14:01:58;;;;;;;1.83;1.17;;;;;;;22.50;46.62;100362.06;21165157;28;20031;-62
2023/10/16 14:12:01;;;;;;;2.17;1.10;;;;;;;22.52;46.28;100365.38;21129412;27;20498;-62
2023/10/16 14:22:06;;;;;;;2.72;0.90;;;;;;;22.54;46.44;100351.94;21147162;27;20096;-59
2023/10/16 14:32:09;;;;;;;1.88;1.10;;;;;;;22.52;46.48;100348.66;21151145;27;20043;-62
2023/10/16 14:42:11;;;;;;;2.78;1.17;;;;;;;22.55;46.32;100350.81;21156075;28;20044;-61
2023/10/16 14:52:14;;;;;;;2.05;1.02;;;;;;;22.48;46.35;100351.22;21149963;27;20568;-62
2023/10/16 15:02:15;;;;;;;2.63;1.15;;;;;;;22.55;46.17;100354.44;21117550;28;20403;-61
2023/10/16 15:12:17;;;;;;;2.03;0.88;;;;;;;22.57;46.35;100346.59;21151693;27;20386;-59
2023/10/16 15:22:19;;;;;;;8.10;1.20;;;;;;;22.58;46.30;100355.78;21145060;28;20546;-62
2023/10/16 15:32:20;;;;;;;4.60;0.98;;;;;;;22.44;46.21;100354.91;21074186;28;20044;-62
2023/10/16 15:42:22;;;;;;;3.53;1.17;;;;;;;22.57;46.16;100366.09;21075654;28;20479;-61
2023/10/16 15:52:25;;;;;;;1.75;0.70;;;;;;;22.60;45.88;100370.25;21115240;28;20478;-62
2023/10/16 16:02:28;;;;;;;2.88;0.80;;;;;;;22.62;45.84;100362.41;21145600;28;20040;-63
2023/10/16 16:12:29;;;;;;;4.97;1.33;;;;;;;22.62;45.66;100367.97;21078037;28;20047;-62
2023/10/16 16:22:31;;;;;;;1.92;0.88;;;;;;;22.61;45.65;100368.28;21170629;28;20044;-62
2023/10/16 16:32:33;;;;;;;1.05;0.60;;;;;;;22.62;45.44;100362.41;21166371;28;20032;-61
2023/10/16 16:42:37;;;;;;;1.52;0.55;;;;;;;22.61;45.65;100359.94;21171213;28;20051;-62
2023/10/16 16:52:44;;;;;;;4.43;1.77;;;;;;;22.50;46.18;100320.25;21157762;28;20036;-63
2023/10/16 17:02:47;;;;;;;4.67;2.10;;;;;;;22.62;46.65;100320.56;21158216;28;20043;-62
2023/10/16 17:12:48;;;;;;;2.95;1.75;;;;;;;22.61;46.97;100307.75;21158841;28;20052;-62
2023/10/16 17:22:53;;;;;;;4.53;1.83;;;;;;;22.60;47.09;100296.94;21154386;28;20047;-62
2023/10/16 17:32:56;;;;;;;5.57;1.77;;;;;;;22.60;47.54;100297.75;21124130;28;20035;-63
2023/10/16 17:42:58;;;;;;;2.40;1.70;;;;;;;22.54;47.23;100282.22;21167340;28;20039;-63
2023/10/16 17:52:59;;;;;;;2.10;1.40;;;;;;;22.59;47.14;100276.59;21166068;28;20153;-63
2023/10/16 18:03:00;;;;;;;6.03;1.38;;;;;;;22.63;47.19;100269.22;21151496;28;20050;-62
2023/10/16 18:13:02;;;;;;;3.00;1.35;;;;;;;22.65;46.96;100272.56;21100161;28;20097;-62
2023/10/16 18:23:03;;;;;;;1.50;0.90;;;;;;;22.62;46.80;100262.00;21124535;28;20135;-62
2023/10/16 18:33:07;;;;;;;4.63;1.23;;;;;;;22.60;46.67;100253.13;21155005;28;20040;-62
2023/10/16 18:43:09;;;;;;;1.85;1.05;;;;;;;22.61;46.42;100254.78;21162193;28;20112;-61
2023/10/16 18:53:10;;;;;;;2.30;0.82;;;;;;;22.64;46.72;100258.94;21135751;28;20044;-64
2023/10/16 19:03:14;;;;;;;1.50;0.70;;;;;;;22.64;46.72;100265.31;21121000;28;20031;-62
2023/10/16 19:13:18;;;;;;;2.28;1.10;;;;;;;22.61;46.81;100268.72;21118639;28;20051;-61
2023/10/16 19:23:19;;;;;;;4.18;1.17;;;;;;;22.60;47.21;100292.19;21113680;28;20063;-62
2023/10/16 19:33:21;;;;;;;2.28;0.85;;;;;;;22.62;46.94;100301.03;21131010;28;20483;-59
2023/10/16 19:43:22;;;;;;;4.07;1.10;;;;;;;22.62;47.13;100298.25;21132910;28;20061;-60
2023/10/16 19:53:26;;;;;;;3.45;1.10;;;;;;;22.64;46.99;100304.38;21166051;28;20097;-60
2023/10/16 20:03:28;;;;;;;3.78;1.00;;;;;;;22.63;46.88;100311.06;21169232;28;20035;-62
2023/10/16 20:13:29;;;;;;;3.72;1.25;;;;;;;22.64;47.16;100304.38;21162604;27;20032;-61
2023/10/16 20:23:33;;;;;;;5.72;1.25;;;;;;;22.62;47.20;100309.41;21136459;27;20112;-61
2023/10/16 20:33:34;;;;;;;1.85;0.82;;;;;;;22.65;47.07;100314.38;21172114;28;20047;-63
2023/10/16 20:43:35;;;;;;;5.57;1.17;;;;;;;22.64;46.69;100329.47;21170898;27;20044;-62
2023/10/16 20:53:37;;;;;;;4.57;1.23;;;;;;;22.64;46.34;100331.44;21171076;28;20540;-62
2023/10/16 21:03:40;;;;;;;4.10;0.82;;;;;;;22.63;46.43;100327.78;21170193;27;20105;-62
2023/10/16 21:13:45;;;;;;;3.95;0.90;;;;;;;22.63;46.52;100332.53;21167964;28;20047;-60
2023/10/16 21:23:46;;;;;;;3.95;0.80;;;;;;;22.62;46.59;100345.66;21168696;28;20036;-61
2023/10/16 21:33:47;;;;;;;1.20;0.80;;;;;;;22.61;46.56;100349.59;21167634;28;20100;-62
2023/10/16 21:43:49;;;;;;;5.53;0.82;;;;;;;22.61;46.60;100351.56;21166964;28;20047;-62
2023/10/16 21:53:51;;;;;;;1.23;0.60;;;;;;;22.60;46.56;100364.69;21147398;28;20524;-62
2023/10/16 22:03:54;;;;;;;2.20;0.80;;;;;;;22.57;46.40;100370.84;21125816;28;20028;-60
2023/10/16 22:13:56;;;;;;;2.10;0.93;;;;;;;22.60;46.52;100389.78;21155699;28;20035;-62
2023/10/16 22:23:58;;;;;;;4.63;1.15;;;;;;;22.43;46.46;100375.56;21087027;28;20044;-63
2023/10/16 22:33:59;;;;;;;2.03;0.82;;;;;;;22.59;46.68;100410.44;21111949;28;20112;-61
2023/10/16 22:44:03;;;;;;;3.33;1.02;;;;;;;22.58;46.97;100414.34;21140821;27;20397;-61
2023/10/16 22:54:07;;;;;;;2.78;0.90;;;;;;;22.58;47.52;100428.28;21140363;28;20093;-62
2023/10/16 23:04:08;;;;;;;5.95;1.23;;;;;;;22.59;47.18;100441.09;21120935;28;20040;-60
2023/10/16 23:14:10;;;;;;;7.25;1.10;;;;;;;22.58;47.15;100453.38;21130578;28;20082;-61
2023/10/16 23:24:17;;;;;;;6.85;1.42;;;;;;;22.59;47.34;100463.41;21158070;28;20061;-62
2023/10/16 23:34:18;;;;;;;9.80;2.00;;;;;;;22.58;47.33;100472.88;21146934;28;20056;-62
2023/10/16 23:44:21;;;;;;;11.60;3.35;;;;;;;22.57;47.83;100477.66;21147942;28;20036;-61
2023/10/16 23:54:55;;;;;;;12.50;3.88;;;;;;;22.56;47.72;100487.16;21101976;28;20032;-61
